createdAt,value
2018-10-09T00:02:21.666Z,102105.36
2018-10-09T00:04:50.890Z,102113.45
2018-10-09T00:07:20.108Z,102110.12
2018-10-09T00:09:49.356Z,102112.32
2018-10-09T00:12:18.577Z,102109.33
2018-10-09T00:14:47.785Z,102109.39
2018-10-09T00:17:17.097Z,102112.81
2018-10-09T00:19:46.329Z,102110.38
2018-10-09T00:22:15.617Z,102117.63
2018-10-09T00:24:44.830Z,102118.55
2018-10-09T00:27:14.049Z,102119.83
2018-10-09T00:29:43.287Z,102115.66
2018-10-09T00:32:12.545Z,102119.94
2018-10-09T00:34:41.750Z,102119.13
2018-10-09T00:37:10.949Z,102115.06
2018-10-09T00:39:40.153Z,102115.94
2018-10-09T00:42:09.412Z,102119.88
2018-10-09T00:44:38.670Z,102123.23
2018-10-09T00:47:07.906Z,102122.91
2018-10-09T00:49:37.148Z,102132.22
2018-10-09T00:52:06.408Z,102131.08
2018-10-09T00:54:35.654Z,102129.38
2018-10-09T00:57:04.900Z,102122.16
2018-10-09T00:59:34.121Z,102118.47
2018-10-09T01:02:03.380Z,102124.36
2018-10-09T01:04:32.574Z,102118.91
2018-10-09T01:07:01.871Z,102107.00
2018-10-09T01:09:31.117Z,102114.73
2018-10-09T01:12:00.556Z,102108.77
2018-10-09T01:14:29.773Z,102101.17
2018-10-09T01:16:58.953Z,102094.39
2018-10-09T01:19:28.153Z,102091.84
2018-10-09T01:21:57.355Z,102093.17
2018-10-09T01:24:26.572Z,102094.96
2018-10-09T01:26:55.773Z,102086.50
2018-10-09T01:29:24.982Z,102085.61
2018-10-09T01:31:54.298Z,102085.31
2018-10-09T01:34:23.506Z,102083.63
2018-10-09T01:36:52.761Z,102076.47
2018-10-09T01:39:22.038Z,102073.98
2018-10-09T01:41:51.305Z,102061.67
2018-10-09T01:44:21.481Z,102061.72
2018-10-09T01:46:50.759Z,102061.78
2018-10-09T01:49:19.992Z,102064.70
2018-10-09T01:51:49.180Z,102064.36
2018-10-09T01:54:18.374Z,102062.30
2018-10-09T01:56:47.558Z,102061.45
2018-10-09T01:59:16.790Z,102055.55
2018-10-09T02:01:46.030Z,102053.45
2018-10-09T02:04:15.266Z,102039.93
2018-10-09T02:06:44.454Z,102037.79
2018-10-09T02:09:13.674Z,102038.66
2018-10-09T02:11:43.058Z,102034.02
2018-10-09T02:14:12.304Z,102032.61
2018-10-09T02:16:41.493Z,102025.91
2018-10-09T02:19:10.725Z,102025.77
2018-10-09T02:21:39.967Z,102021.22
2018-10-09T02:24:09.244Z,102027.25
2018-10-09T02:26:38.454Z,102024.75
2018-10-09T02:29:07.675Z,102024.84
2018-10-09T02:31:36.934Z,102026.11
2018-10-09T02:34:06.145Z,102022.34
2018-10-09T02:36:35.362Z,102021.50
2018-10-09T02:39:06.594Z,102024.11
2018-10-09T02:41:35.842Z,102020.37
2018-10-09T02:44:05.060Z,102022.50
2018-10-09T02:46:34.276Z,102023.70
2018-10-09T02:49:03.481Z,102021.29
2018-10-09T02:51:32.696Z,102026.47
2018-10-09T02:54:01.916Z,102031.19
2018-10-09T02:56:31.090Z,102037.13
2018-10-09T02:59:00.292Z,102029.97
2018-10-09T03:01:29.492Z,102031.27
2018-10-09T03:03:58.725Z,102033.87
2018-10-09T03:06:27.976Z,102022.45
2018-10-09T03:08:57.196Z,102028.42
2018-10-09T03:11:26.429Z,102031.02
2018-10-09T03:13:55.671Z,102030.18
2018-10-09T03:16:24.912Z,102034.08
2018-10-09T03:18:54.091Z,102039.66
2018-10-09T03:21:23.312Z,102030.80
2018-10-09T03:23:52.577Z,102026.98
2018-10-09T03:26:21.816Z,102020.69
2018-10-09T03:28:51.008Z,102019.04
2018-10-09T03:31:20.210Z,102014.41
2018-10-09T03:33:49.463Z,102016.57
2018-10-09T03:36:18.705Z,102014.02
2018-10-09T03:38:47.897Z,102009.42
2018-10-09T03:41:17.097Z,102001.42
2018-10-09T03:43:46.296Z,102014.76
2018-10-09T03:46:15.492Z,102014.89
2018-10-09T03:48:44.694Z,102010.69
2018-10-09T03:51:13.909Z,102015.02
2018-10-09T03:53:43.096Z,102012.61
2018-10-09T03:56:12.276Z,102015.86
2018-10-09T03:58:41.465Z,102015.12
2018-10-09T04:01:10.676Z,102020.59
2018-10-09T04:03:39.886Z,102028.34
2018-10-09T04:06:09.128Z,102031.75
2018-10-09T04:08:38.367Z,102036.44
2018-10-09T04:11:07.538Z,102033.11
2018-10-09T04:13:37.212Z,102031.50
2018-10-09T04:16:06.746Z,102037.89
2018-10-09T04:18:35.951Z,102042.14
2018-10-09T04:21:05.160Z,102035.83
2018-10-09T04:23:34.428Z,102037.53
2018-10-09T04:26:03.640Z,102042.63
2018-10-09T04:28:32.872Z,102034.20
2018-10-09T04:31:02.218Z,102033.05
2018-10-09T04:33:31.425Z,102033.47
2018-10-09T04:36:00.625Z,102039.30
2018-10-09T04:38:29.947Z,102033.03
2018-10-09T04:40:59.175Z,102031.78
2018-10-09T04:43:28.395Z,102037.30
2018-10-09T04:45:57.642Z,102030.56
2018-10-09T04:48:26.820Z,102029.28
2018-10-09T04:50:56.031Z,102029.34
2018-10-09T04:53:25.243Z,102032.69
2018-10-09T04:55:54.470Z,102031.48
2018-10-09T04:58:23.751Z,102030.63
2018-10-09T05:00:52.977Z,102038.32
2018-10-09T05:03:22.257Z,102034.55
2018-10-09T05:05:51.462Z,102041.37
2018-10-09T05:08:20.697Z,102033.00
2018-10-09T05:10:49.916Z,102041.47
2018-10-09T05:13:19.142Z,102041.05
2018-10-09T05:15:48.358Z,102042.77
2018-10-09T05:18:17.621Z,102044.52
2018-10-09T05:20:46.860Z,102044.28
2018-10-09T05:23:16.161Z,102040.83
2018-10-09T05:25:45.399Z,102044.21
2018-10-09T05:28:14.642Z,102044.21
2018-10-09T05:30:43.834Z,102042.94
2018-10-09T05:33:13.091Z,102042.20
2018-10-09T05:35:42.316Z,102049.37
2018-10-09T05:38:11.630Z,102051.00
2018-10-09T05:40:40.826Z,102050.21
2018-10-09T05:43:10.056Z,102060.48
2018-10-09T05:45:40.272Z,102061.77
2018-10-09T05:48:10.737Z,102068.93
2018-10-09T05:50:40.000Z,102070.30
2018-10-09T05:53:09.958Z,102071.22
2018-10-09T05:55:39.164Z,102080.96
2018-10-09T05:58:08.649Z,102072.52
2018-10-09T06:00:37.780Z,102075.50
2018-10-09T06:03:07.250Z,102074.70
2018-10-09T06:05:36.464Z,102077.25
2018-10-09T06:08:05.683Z,102080.69
2018-10-09T06:10:34.927Z,102086.20
2018-10-09T06:13:04.208Z,102082.81
2018-10-09T06:15:33.533Z,102087.11
2018-10-09T06:18:02.703Z,102089.22
2018-10-09T06:20:31.934Z,102088.80
2018-10-09T06:23:01.183Z,102086.36
2018-10-09T06:25:30.495Z,102095.58
2018-10-09T06:27:59.806Z,102103.96
2018-10-09T06:30:29.046Z,102098.13
2018-10-09T06:32:58.277Z,102098.06
2018-10-09T06:35:27.504Z,102099.20
2018-10-09T06:37:56.703Z,102101.31
2018-10-09T06:40:25.958Z,102099.09
2018-10-09T06:42:55.271Z,102101.70
2018-10-09T06:45:24.641Z,102109.31
2018-10-09T06:47:53.916Z,102106.67
2018-10-09T06:50:23.165Z,102097.86
2018-10-09T06:52:52.392Z,102094.79
2018-10-09T06:55:21.642Z,102094.67
2018-10-09T06:57:50.861Z,102097.96
2018-10-09T07:00:20.156Z,102102.50
2018-10-09T07:02:49.287Z,102103.27
2018-10-09T07:05:18.541Z,102106.52
2018-10-09T07:07:47.883Z,102112.88
2018-10-09T07:10:17.241Z,102116.58
2018-10-09T07:12:46.460Z,102120.69
2018-10-09T07:15:15.726Z,102120.73
2018-10-09T07:17:45.019Z,102126.08
2018-10-09T07:20:14.367Z,102129.25
2018-10-09T07:22:43.660Z,102138.09
2018-10-09T07:25:12.895Z,102151.92
2018-10-09T07:27:42.175Z,102145.17
2018-10-09T07:30:11.835Z,102149.72
2018-10-09T07:32:42.028Z,102148.27
2018-10-09T07:35:11.754Z,102156.22
2018-10-09T07:37:41.092Z,102160.34
2018-10-09T07:40:10.584Z,102168.75
2018-10-09T07:42:39.824Z,102161.41
2018-10-09T07:45:09.867Z,102167.59
2018-10-09T07:47:39.118Z,102174.77
2018-10-09T07:50:08.370Z,102165.64
2018-10-09T07:52:37.610Z,102168.49
2018-10-09T07:55:06.898Z,102169.61
2018-10-09T07:57:36.158Z,102176.37
2018-10-09T08:00:05.481Z,102180.34
2018-10-09T08:02:34.766Z,102175.59
2018-10-09T08:05:04.083Z,102175.41
2018-10-09T08:07:33.344Z,102179.53
2018-10-09T08:10:02.594Z,102175.48
2018-10-09T08:12:31.825Z,102174.86
2018-10-09T08:15:01.064Z,102179.74
2018-10-09T08:17:30.320Z,102185.86
2018-10-09T08:19:59.562Z,102189.91
2018-10-09T08:22:28.824Z,102190.46
2018-10-09T08:24:57.979Z,102186.03
2018-10-09T08:27:27.183Z,102184.98
2018-10-09T08:29:56.387Z,102186.78
2018-10-09T08:32:25.716Z,102186.42
2018-10-09T08:34:54.877Z,102188.24
2018-10-09T08:37:24.104Z,102194.35
2018-10-09T08:39:53.350Z,102198.01
2018-10-09T08:42:22.634Z,102199.87
2018-10-09T08:44:56.611Z,102195.00
2018-10-09T08:47:25.931Z,102196.65
2018-10-09T08:49:55.210Z,102198.94
2018-10-09T08:52:24.515Z,102195.64
2018-10-09T08:54:53.755Z,102196.52
2018-10-09T08:57:23.043Z,102198.67
2018-10-09T08:59:52.269Z,102199.64
2018-10-09T09:02:21.514Z,102195.95
2018-10-09T09:04:50.757Z,102202.23
2018-10-09T09:07:19.972Z,102199.38
2018-10-09T09:09:49.207Z,102193.94
2018-10-09T09:12:18.453Z,102190.17
2018-10-09T09:14:47.671Z,102186.13
2018-10-09T09:17:17.014Z,102186.61
2018-10-09T09:19:46.206Z,102188.91
2018-10-09T09:22:15.471Z,102191.55
2018-10-09T09:24:44.697Z,102194.86
2018-10-09T09:27:14.040Z,102191.72
2018-10-09T09:29:43.141Z,102190.17
2018-10-09T09:32:12.393Z,102187.29
2018-10-09T09:34:41.608Z,102184.77
2018-10-09T09:37:10.859Z,102184.38
2018-10-09T09:39:40.092Z,102179.50
2018-10-09T09:42:09.311Z,102180.02
2018-10-09T09:44:38.550Z,102179.13
2018-10-09T09:47:07.774Z,102177.68
2018-10-09T09:49:36.966Z,102170.50
2018-10-09T09:52:06.393Z,102169.36
2018-10-09T09:54:35.582Z,102171.28
2018-10-09T09:57:04.854Z,102166.14
2018-10-09T09:59:34.126Z,102162.59
2018-10-09T10:02:03.422Z,102160.02
2018-10-09T10:04:32.638Z,102158.28
2018-10-09T10:07:01.879Z,102151.23
2018-10-09T10:09:31.106Z,102154.02
2018-10-09T10:12:00.375Z,102154.16
2018-10-09T10:14:29.631Z,102144.76
2018-10-09T10:16:58.862Z,102145.26
2018-10-09T10:19:28.166Z,102143.62
2018-10-09T10:21:57.412Z,102148.34
2018-10-09T10:24:26.705Z,102143.77
2018-10-09T10:26:55.944Z,102141.39
2018-10-09T10:29:25.125Z,102139.91
2018-10-09T10:31:54.379Z,102145.50
2018-10-09T10:34:23.589Z,102136.27
2018-10-09T10:36:52.842Z,102129.16
2018-10-09T10:39:22.122Z,102126.03
2018-10-09T10:41:51.360Z,102128.55
2018-10-09T10:44:20.672Z,102128.70
2018-10-09T10:46:49.907Z,102125.02
2018-10-09T10:49:19.141Z,102130.85
2018-10-09T10:51:48.333Z,102138.63
2018-10-09T10:54:17.664Z,102135.64
2018-10-09T10:56:46.887Z,102136.23
2018-10-09T10:59:16.108Z,102125.45
2018-10-09T11:01:45.409Z,102121.63
2018-10-09T11:04:14.797Z,102131.70
2018-10-09T11:06:44.021Z,102126.09
2018-10-09T11:09:13.328Z,102122.79
2018-10-09T11:11:42.606Z,102122.95
2018-10-09T11:14:11.861Z,102120.32
2018-10-09T11:16:41.109Z,102118.54
2018-10-09T11:19:10.366Z,102116.61
2018-10-09T11:21:39.701Z,102115.95
2018-10-09T11:24:08.947Z,102121.98
2018-10-09T11:26:38.170Z,102114.25
2018-10-09T11:29:07.406Z,102119.59
2018-10-09T11:31:36.650Z,102108.05
2018-10-09T11:34:05.892Z,102109.93
2018-10-09T11:36:35.316Z,102107.07
2018-10-09T11:39:06.375Z,102102.69
2018-10-09T11:41:35.601Z,102098.48
2018-10-09T11:44:04.886Z,102090.29
2018-10-09T11:46:35.001Z,102082.16
2018-10-09T11:49:04.265Z,102083.03
2018-10-09T11:51:33.502Z,102071.27
2018-10-09T11:54:02.890Z,102079.68
2018-10-09T11:56:32.098Z,102073.55
2018-10-09T11:59:01.432Z,102072.70
2018-10-09T12:01:30.608Z,102065.14
2018-10-09T12:03:59.848Z,102060.63
2018-10-09T12:06:29.150Z,102050.61
2018-10-09T12:08:58.381Z,102049.56
2018-10-09T12:11:27.752Z,102045.11
2018-10-09T12:13:57.007Z,102046.63
2018-10-09T12:16:26.255Z,102047.34
2018-10-09T12:18:55.533Z,102047.12
2018-10-09T12:21:24.811Z,102044.13
2018-10-09T12:23:53.986Z,102051.58
2018-10-09T12:26:23.270Z,102051.03
2018-10-09T12:28:52.499Z,102054.53
2018-10-09T12:31:21.775Z,102048.03
2018-10-09T12:33:50.988Z,102046.95
2018-10-09T12:36:20.211Z,102048.36
2018-10-09T12:38:49.431Z,102052.12
2018-10-09T12:41:18.596Z,102046.55
2018-10-09T12:43:47.824Z,102049.74
2018-10-09T12:46:16.983Z,102042.12
2018-10-09T12:48:46.247Z,102043.22
2018-10-09T12:51:15.493Z,102039.09
2018-10-09T12:53:44.673Z,102043.34
2018-10-09T12:56:14.751Z,102034.38
2018-10-09T12:58:44.060Z,102037.47
2018-10-09T13:01:13.179Z,102029.78
2018-10-09T13:03:42.349Z,102035.94
2018-10-09T13:06:11.591Z,102034.68
2018-10-09T13:08:40.885Z,102038.56
2018-10-09T13:11:10.059Z,102038.25
2018-10-09T13:13:39.309Z,102034.69
2018-10-09T13:16:08.523Z,102040.43
2018-10-09T13:18:37.742Z,102035.81
2018-10-09T13:21:07.399Z,102033.93
2018-10-09T13:23:36.471Z,102030.84
2018-10-09T13:26:05.674Z,102030.59
2018-10-09T13:28:34.876Z,102028.66
2018-10-09T13:31:04.134Z,102031.05
2018-10-09T13:33:33.268Z,102031.05
2018-10-09T13:36:02.512Z,102021.86
2018-10-09T13:38:31.734Z,102017.38
2018-10-09T13:41:00.953Z,102018.94
2018-10-09T13:43:30.206Z,102026.66
2018-10-09T13:45:59.399Z,102017.10
2018-10-09T13:48:28.600Z,102017.56
2018-10-09T13:50:57.910Z,102015.19
2018-10-09T13:53:27.054Z,102018.66
2018-10-09T13:55:56.246Z,102013.50
2018-10-09T13:58:25.435Z,102006.28
2018-10-09T14:00:54.649Z,102009.20
2018-10-09T14:03:23.845Z,102012.54
2018-10-09T14:05:53.170Z,102014.13
2018-10-09T14:08:22.425Z,101988.53
2018-10-09T14:10:51.612Z,102005.84
2018-10-09T14:13:20.825Z,102003.27
2018-10-09T14:15:50.006Z,102003.84
2018-10-09T14:18:19.244Z,102002.89
2018-10-09T14:20:49.085Z,101997.81
2018-10-09T14:23:20.021Z,101998.25
2018-10-09T14:25:49.292Z,101998.30
2018-10-09T14:28:18.523Z,101990.57
2018-10-09T14:30:47.694Z,101989.08
2018-10-09T14:33:16.937Z,101993.44
2018-10-09T14:35:46.142Z,101988.92
2018-10-09T14:38:15.387Z,101987.81
2018-10-09T14:40:44.752Z,101983.03
2018-10-09T14:43:14.018Z,101985.63
2018-10-09T14:45:43.257Z,101983.42
2018-10-09T14:48:12.504Z,101988.07
2018-10-09T14:50:41.728Z,101989.85
2018-10-09T14:53:11.044Z,101988.47
2018-10-09T14:55:40.278Z,101988.02
2018-10-09T14:58:09.603Z,101983.86
2018-10-09T15:00:38.834Z,101983.56
2018-10-09T15:03:08.065Z,101980.72
2018-10-09T15:05:37.266Z,101979.94
2018-10-09T15:08:06.802Z,101982.29
2018-10-09T15:10:36.013Z,101978.37
2018-10-09T15:13:05.416Z,101985.55
2018-10-09T15:15:34.585Z,101983.19
2018-10-09T15:18:03.781Z,101981.98
2018-10-09T15:20:32.955Z,101981.53
2018-10-09T15:23:02.501Z,101988.41
2018-10-09T15:25:32.149Z,101984.30
2018-10-09T15:28:01.407Z,101983.08
2018-10-09T15:30:30.638Z,101982.66
2018-10-09T15:32:59.890Z,101982.89
2018-10-09T15:35:29.281Z,101976.56
2018-10-09T15:37:58.431Z,101989.30
2018-10-09T15:40:27.658Z,101989.83
2018-10-09T15:42:56.878Z,101989.80
2018-10-09T15:45:26.079Z,101991.15
2018-10-09T15:47:55.320Z,101993.09
2018-10-09T15:50:24.557Z,101992.21
2018-10-09T15:52:54.104Z,101998.47
2018-10-09T15:55:23.298Z,101995.25
2018-10-09T15:57:52.562Z,101992.62
2018-10-09T16:00:21.890Z,101991.52
2018-10-09T16:02:51.165Z,101986.59
2018-10-09T16:05:20.415Z,101982.13
2018-10-09T16:07:49.744Z,101983.69
2018-10-09T16:10:18.930Z,101981.77
2018-10-09T16:12:48.143Z,101982.25
2018-10-09T16:15:17.437Z,101978.81
2018-10-09T16:17:46.652Z,101976.80
2018-10-09T16:20:15.891Z,101981.90
2018-10-09T16:22:45.170Z,101983.06
2018-10-09T16:25:14.371Z,101990.27
2018-10-09T16:27:43.587Z,101987.92
2018-10-09T16:30:12.773Z,101985.77
2018-10-09T16:32:42.126Z,101986.93
2018-10-09T16:35:11.201Z,101987.61
2018-10-09T16:37:40.415Z,101990.67
2018-10-09T16:40:09.732Z,101989.02
2018-10-09T16:42:38.957Z,101988.97
2018-10-09T16:45:08.210Z,101989.81
2018-10-09T16:47:37.398Z,101990.78
2018-10-09T16:50:06.602Z,101995.92
2018-10-09T16:52:35.773Z,101988.02
2018-10-09T16:55:05.406Z,101994.64
2018-10-09T16:57:34.589Z,101990.72
2018-10-09T17:00:03.894Z,101990.48
2018-10-09T17:02:33.103Z,101989.50
2018-10-09T17:05:02.318Z,101999.47
2018-10-09T17:07:31.537Z,102001.45
2018-10-09T17:10:00.783Z,102005.17
2018-10-09T17:12:30.102Z,102008.48
2018-10-09T17:15:00.388Z,102016.95
2018-10-09T17:17:31.087Z,102013.88
2018-10-09T17:20:00.254Z,102008.71
2018-10-09T17:22:29.560Z,102006.53
2018-10-09T17:24:58.672Z,102009.36
2018-10-09T17:27:27.882Z,102005.34
2018-10-09T17:29:59.265Z,102018.58
2018-10-09T17:32:28.587Z,102015.06
2018-10-09T17:34:57.759Z,102020.08
2018-10-09T17:37:27.035Z,102014.09
2018-10-09T17:39:56.343Z,102013.36
2018-10-09T17:42:25.667Z,102011.73
2018-10-09T17:44:54.899Z,102014.46
2018-10-09T17:47:24.213Z,102014.76
2018-10-09T17:49:53.418Z,102014.95
2018-10-09T17:52:22.623Z,102020.55
2018-10-09T17:54:51.825Z,102014.52
2018-10-09T17:57:21.090Z,102008.94
2018-10-09T17:59:50.315Z,102009.94
2018-10-09T18:02:19.530Z,102016.98
2018-10-09T18:04:48.785Z,102019.78
2018-10-09T18:07:18.066Z,102021.82
2018-10-09T18:09:47.395Z,102026.31
2018-10-09T18:12:16.723Z,102021.38
2018-10-09T18:17:25.939Z,102017.58
2018-10-09T18:19:55.114Z,102019.59
2018-10-09T18:22:24.387Z,102027.53
2018-10-09T18:24:53.607Z,102024.29
2018-10-09T18:27:22.982Z,102021.91
2018-10-09T18:29:52.161Z,102031.27
2018-10-09T18:32:21.564Z,102029.44
2018-10-09T18:34:50.759Z,102031.17
2018-10-09T18:37:20.067Z,102028.47
2018-10-09T18:39:49.354Z,102041.09
2018-10-09T18:42:18.613Z,102034.82
2018-10-09T18:44:48.403Z,102036.47
2018-10-09T18:47:22.705Z,102030.63
2018-10-09T18:49:51.983Z,102037.03
2018-10-09T18:52:21.502Z,102037.20
2018-10-09T18:54:50.726Z,102035.62
2018-10-09T18:57:19.922Z,102033.98
2018-10-09T18:59:49.244Z,102036.06
2018-10-09T19:02:18.473Z,102033.50
2018-10-09T19:04:47.762Z,102032.55
2018-10-09T19:07:16.905Z,102035.09
2018-10-09T19:09:46.108Z,102035.98
2018-10-09T19:12:15.318Z,102034.85
2018-10-09T19:14:44.489Z,102036.79
2018-10-09T19:17:13.674Z,102036.44
2018-10-09T19:19:42.844Z,102039.80
2018-10-09T19:22:12.011Z,102041.38
2018-10-09T19:24:41.229Z,102039.95
2018-10-09T19:27:10.756Z,102048.35
2018-10-09T19:29:40.278Z,102045.82
2018-10-09T19:32:09.438Z,102052.69
2018-10-09T19:34:38.588Z,102050.06
2018-10-09T19:37:07.724Z,102051.77
2018-10-09T19:39:36.893Z,102046.57
2018-10-09T19:42:06.005Z,102041.28
2018-10-09T19:44:35.180Z,102042.50
2018-10-09T19:47:04.379Z,102045.84
2018-10-09T19:49:33.618Z,102042.14
2018-10-09T19:52:02.971Z,102051.45
2018-10-09T19:54:33.688Z,102051.88
2018-10-09T19:57:02.842Z,102050.37
2018-10-09T19:59:32.100Z,102049.63
2018-10-09T20:02:01.271Z,102050.91
2018-10-09T20:04:30.418Z,102054.81
2018-10-09T20:06:59.630Z,102046.50
2018-10-09T20:09:28.835Z,102053.55
2018-10-09T20:11:57.998Z,102050.37
2018-10-09T20:14:27.322Z,102054.76
2018-10-09T20:16:56.722Z,102048.48
2018-10-09T20:19:25.922Z,102045.78
2018-10-09T20:21:55.068Z,102052.11
2018-10-09T20:24:24.250Z,102050.16
2018-10-09T20:26:53.433Z,102054.02
2018-10-09T20:29:22.585Z,102025.39
2018-10-09T20:31:51.721Z,102050.53
2018-10-09T20:34:20.910Z,102052.73
2018-10-09T20:36:50.129Z,102049.11
2018-10-09T20:39:19.321Z,102048.05
2018-10-09T20:41:48.549Z,102049.70
2018-10-09T20:44:17.713Z,102051.15
2018-10-09T20:46:46.871Z,102053.41
2018-10-09T20:49:16.059Z,102055.72
2018-10-09T20:51:45.451Z,102052.88
2018-10-09T20:54:14.574Z,102052.62
2018-10-09T20:56:43.779Z,102051.03
2018-10-09T20:59:12.937Z,102049.47
2018-10-09T21:01:42.072Z,102052.53
2018-10-09T21:04:11.210Z,102057.39
2018-10-09T21:06:40.376Z,102059.11
2018-10-09T21:09:09.503Z,102065.14
2018-10-09T21:11:38.738Z,102061.50
2018-10-09T21:14:07.873Z,102067.03
2018-10-09T21:16:37.049Z,102053.14
2018-10-09T21:19:06.221Z,102056.15
2018-10-09T21:21:35.430Z,102050.78
2018-10-09T21:24:04.572Z,102048.36
2018-10-09T21:26:33.758Z,102051.98
2018-10-09T21:29:02.902Z,102050.37
2018-10-09T21:31:32.094Z,102047.89
2018-10-09T21:34:01.232Z,102047.06
2018-10-09T21:36:30.388Z,102046.83
2018-10-09T21:38:59.540Z,102043.87
2018-10-09T21:41:28.711Z,102049.61
2018-10-09T21:43:57.846Z,102051.02
2018-10-09T21:46:27.005Z,102049.38
2018-10-09T21:48:56.149Z,102053.43
2018-10-09T21:51:25.305Z,102050.60
2018-10-09T21:53:54.485Z,102047.07
2018-10-09T21:56:23.691Z,102046.27
2018-10-09T21:58:52.884Z,102050.60
2018-10-09T22:01:22.116Z,102041.31
2018-10-09T22:03:51.278Z,102041.00
2018-10-09T22:06:20.438Z,102039.72
2018-10-09T22:08:49.580Z,102032.23
2018-10-09T22:11:18.733Z,102035.77
2018-10-09T22:13:47.886Z,102035.01
2018-10-09T22:16:17.061Z,102040.66
2018-10-09T22:18:46.246Z,102036.86
2018-10-09T22:21:15.455Z,102035.22
2018-10-09T22:23:44.609Z,102030.61
2018-10-09T22:26:13.778Z,102031.94
2018-10-09T22:28:42.945Z,102028.54
2018-10-09T22:31:12.071Z,102027.86
2018-10-09T22:33:41.217Z,102027.86
2018-10-09T22:36:10.342Z,102025.73
2018-10-09T22:38:39.629Z,102018.13
2018-10-09T22:41:08.733Z,102016.53
2018-10-09T22:43:37.926Z,102015.70
2018-10-09T22:46:07.672Z,102012.77
2018-10-09T22:48:36.872Z,102014.17
2018-10-09T22:51:06.059Z,102014.62
2018-10-09T22:53:35.265Z,102011.70
2018-10-09T22:56:04.485Z,102014.38
2018-10-09T22:58:33.685Z,102007.14
2018-10-09T23:01:02.890Z,102002.61
2018-10-09T23:03:32.190Z,102008.27
2018-10-09T23:06:01.437Z,102008.78
2018-10-09T23:08:30.646Z,102007.19
2018-10-09T23:10:59.835Z,102004.62
2018-10-09T23:13:28.915Z,102006.87
2018-10-09T23:15:58.232Z,102008.47
2018-10-09T23:18:27.411Z,102006.11
2018-10-09T23:20:56.477Z,102005.39
2018-10-09T23:23:25.560Z,102007.59
2018-10-09T23:25:54.630Z,102011.95
2018-10-09T23:28:23.704Z,102018.80
2018-10-09T23:30:52.799Z,102014.64
2018-10-09T23:33:21.948Z,102022.92
2018-10-09T23:35:51.044Z,102012.20
2018-10-09T23:38:20.295Z,102018.75
2018-10-09T23:40:49.386Z,102011.63
2018-10-09T23:43:18.496Z,102006.91
2018-10-09T23:45:48.411Z,102012.16
2018-10-09T23:48:17.526Z,102013.44
2018-10-09T23:50:46.656Z,102011.31
2018-10-09T23:53:15.776Z,102012.23
2018-10-09T23:55:44.889Z,102010.63
2018-10-09T23:58:14.013Z,102010.31
